sensor_id;sensor_type;location;lat;lon;timestamp;temperature;humidity
55135;DHT22;41031;44.750;11.308;2022-08-19T00:01:55;22.30;94.20
55135;DHT22;41031;44.750;11.308;2022-08-19T00:04:26;22.40;94.30
55135;DHT22;41031;44.750;11.308;2022-08-19T00:06:54;22.40;94.40
55135;DHT22;41031;44.750;11.308;2022-08-19T00:09:22;22.30;94.50
55135;DHT22;41031;44.750;11.308;2022-08-19T00:11:52;22.40;94.60
55135;DHT22;41031;44.750;11.308;2022-08-19T00:14:24;22.50;94.70
55135;DHT22;41031;44.750;11.308;2022-08-19T00:16:51;22.50;94.70
55135;DHT22;41031;44.750;11.308;2022-08-19T00:19:24;22.50;94.60
55135;DHT22;41031;44.750;11.308;2022-08-19T00:21:52;22.50;94.60
55135;DHT22;41031;44.750;11.308;2022-08-19T00:24:19;22.50;94.60
55135;DHT22;41031;44.750;11.308;2022-08-19T00:26:47;22.50;94.40
55135;DHT22;41031;44.750;11.308;2022-08-19T00:29:19;22.50;94.40
55135;DHT22;41031;44.750;11.308;2022-08-19T00:31:47;22.50;94.50
55135;DHT22;41031;44.750;11.308;2022-08-19T00:34:16;22.50;94.70
55135;DHT22;41031;44.750;11.308;2022-08-19T00:36:44;22.40;94.30
55135;DHT22;41031;44.750;11.308;2022-08-19T00:39:12;22.50;94.40
55135;DHT22;41031;44.750;11.308;2022-08-19T00:41:40;22.50;94.50
55135;DHT22;41031;44.750;11.308;2022-08-19T00:44:14;22.40;94.60
55135;DHT22;41031;44.750;11.308;2022-08-19T00:46:44;22.50;94.60
55135;DHT22;41031;44.750;11.308;2022-08-19T00:52:10;22.50;94.60
55135;DHT22;41031;44.750;11.308;2022-08-19T00:54:40;22.50;94.60
55135;DHT22;41031;44.750;11.308;2022-08-19T00:57:11;22.50;94.60
55135;DHT22;41031;44.750;11.308;2022-08-19T00:59:41;22.60;94.60
55135;DHT22;41031;44.750;11.308;2022-08-19T01:02:29;22.50;94.60
55135;DHT22;41031;44.750;11.308;2022-08-19T01:04:57;22.60;94.70
55135;DHT22;41031;44.750;11.308;2022-08-19T01:07:24;22.60;94.60
55135;DHT22;41031;44.750;11.308;2022-08-19T01:09:52;22.50;94.60
55135;DHT22;41031;44.750;11.308;2022-08-19T01:12:19;22.60;94.70
55135;DHT22;41031;44.750;11.308;2022-08-19T01:14:47;22.60;94.70
55135;DHT22;41031;44.750;11.308;2022-08-19T01:17:15;22.50;94.50
55135;DHT22;41031;44.750;11.308;2022-08-19T01:19:44;22.50;94.60
55135;DHT22;41031;44.750;11.308;2022-08-19T01:22:19;22.60;94.60
55135;DHT22;41031;44.750;11.308;2022-08-19T01:24:58;22.60;94.60
55135;DHT22;41031;44.750;11.308;2022-08-19T01:27:26;22.60;94.50
55135;DHT22;41031;44.750;11.308;2022-08-19T01:29:59;22.60;94.50
55135;DHT22;41031;44.750;11.308;2022-08-19T01:32:26;22.60;94.40
55135;DHT22;41031;44.750;11.308;2022-08-19T01:35:00;22.50;94.30
55135;DHT22;41031;44.750;11.308;2022-08-19T01:37:29;22.60;94.20
55135;DHT22;41031;44.750;11.308;2022-08-19T01:39:57;22.50;94.20
55135;DHT22;41031;44.750;11.308;2022-08-19T01:42:24;22.50;94.10
55135;DHT22;41031;44.750;11.308;2022-08-19T01:44:56;22.40;93.70
55135;DHT22;41031;44.750;11.308;2022-08-19T01:47:24;22.40;93.80
55135;DHT22;41031;44.750;11.308;2022-08-19T01:49:51;22.40;93.40
55135;DHT22;41031;44.750;11.308;2022-08-19T01:52:19;22.30;93.10
55135;DHT22;41031;44.750;11.308;2022-08-19T01:54:46;22.30;93.20
55135;DHT22;41031;44.750;11.308;2022-08-19T01:57:14;22.20;93.20
55135;DHT22;41031;44.750;11.308;2022-08-19T01:59:43;22.20;93.20
55135;DHT22;41031;44.750;11.308;2022-08-19T02:02:11;22.20;93.20
55135;DHT22;41031;44.750;11.308;2022-08-19T02:04:38;22.10;93.20
55135;DHT22;41031;44.750;11.308;2022-08-19T02:07:07;22.10;93.20
55135;DHT22;41031;44.750;11.308;2022-08-19T02:09:35;22.10;93.20
55135;DHT22;41031;44.750;11.308;2022-08-19T02:12:04;22.10;93.40
55135;DHT22;41031;44.750;11.308;2022-08-19T02:14:34;22.10;93.50
55135;DHT22;41031;44.750;11.308;2022-08-19T02:17:01;22.10;93.60
55135;DHT22;41031;44.750;11.308;2022-08-19T02:19:28;22.10;93.60
55135;DHT22;41031;44.750;11.308;2022-08-19T02:21:56;22.10;93.70
55135;DHT22;41031;44.750;11.308;2022-08-19T02:24:23;22.10;93.70
55135;DHT22;41031;44.750;11.308;2022-08-19T02:26:50;22.00;93.80
55135;DHT22;41031;44.750;11.308;2022-08-19T02:29:18;22.10;93.80
55135;DHT22;41031;44.750;11.308;2022-08-19T02:31:46;22.10;94.00
55135;DHT22;41031;44.750;11.308;2022-08-19T02:34:13;22.10;93.60
55135;DHT22;41031;44.750;11.308;2022-08-19T02:36:40;22.10;93.50
55135;DHT22;41031;44.750;11.308;2022-08-19T02:39:09;22.10;93.40
55135;DHT22;41031;44.750;11.308;2022-08-19T02:41:36;22.00;93.50
55135;DHT22;41031;44.750;11.308;2022-08-19T02:44:04;22.00;93.60
55135;DHT22;41031;44.750;11.308;2022-08-19T02:46:52;22.00;93.70
55135;DHT22;41031;44.750;11.308;2022-08-19T02:49:19;22.00;93.70
55135;DHT22;41031;44.750;11.308;2022-08-19T02:51:47;22.00;93.80
55135;DHT22;41031;44.750;11.308;2022-08-19T02:54:14;22.00;93.90
55135;DHT22;41031;44.750;11.308;2022-08-19T02:56:43;22.00;94.00
55135;DHT22;41031;44.750;11.308;2022-08-19T02:59:10;22.00;94.00
55135;DHT22;41031;44.750;11.308;2022-08-19T03:01:41;22.00;93.90
55135;DHT22;41031;44.750;11.308;2022-08-19T03:04:12;21.90;93.70
55135;DHT22;41031;44.750;11.308;2022-08-19T03:06:41;21.90;93.70
55135;DHT22;41031;44.750;11.308;2022-08-19T03:09:09;21.90;93.70
55135;DHT22;41031;44.750;11.308;2022-08-19T03:11:36;21.90;93.70
55135;DHT22;41031;44.750;11.308;2022-08-19T03:14:07;21.80;93.70
55135;DHT22;41031;44.750;11.308;2022-08-19T03:16:44;21.80;93.70
55135;DHT22;41031;44.750;11.308;2022-08-19T03:19:12;21.80;93.80
55135;DHT22;41031;44.750;11.308;2022-08-19T03:21:40;21.70;93.80
55135;DHT22;41031;44.750;11.308;2022-08-19T03:24:09;21.70;93.80
55135;DHT22;41031;44.750;11.308;2022-08-19T03:26:46;21.70;93.80
55135;DHT22;41031;44.750;11.308;2022-08-19T03:29:14;21.70;93.80
55135;DHT22;41031;44.750;11.308;2022-08-19T03:31:57;21.70;93.80
55135;DHT22;41031;44.750;11.308;2022-08-19T03:34:29;21.70;93.90
55135;DHT22;41031;44.750;11.308;2022-08-19T03:37:01;21.60;93.90
55135;DHT22;41031;44.750;11.308;2022-08-19T03:39:29;21.60;93.90
55135;DHT22;41031;44.750;11.308;2022-08-19T03:41:57;21.60;93.90
55135;DHT22;41031;44.750;11.308;2022-08-19T03:44:45;21.60;93.90
55135;DHT22;41031;44.750;11.308;2022-08-19T03:47:12;21.60;93.60
55135;DHT22;41031;44.750;11.308;2022-08-19T03:49:43;21.60;93.60
55135;DHT22;41031;44.750;11.308;2022-08-19T03:52:10;21.60;93.70
55135;DHT22;41031;44.750;11.308;2022-08-19T03:54:39;21.50;93.80
55135;DHT22;41031;44.750;11.308;2022-08-19T03:57:06;21.50;93.80
55135;DHT22;41031;44.750;11.308;2022-08-19T03:59:36;21.50;93.80
55135;DHT22;41031;44.750;11.308;2022-08-19T04:02:09;21.50;93.80
55135;DHT22;41031;44.750;11.308;2022-08-19T04:04:39;21.50;93.90
55135;DHT22;41031;44.750;11.308;2022-08-19T04:07:08;21.40;93.90
55135;DHT22;41031;44.750;11.308;2022-08-19T04:09:36;21.40;94.00
55135;DHT22;41031;44.750;11.308;2022-08-19T04:12:04;21.40;94.10
55135;DHT22;41031;44.750;11.308;2022-08-19T04:14:33;21.50;94.10
55135;DHT22;41031;44.750;11.308;2022-08-19T04:17:01;21.50;94.10
55135;DHT22;41031;44.750;11.308;2022-08-19T04:19:34;21.50;94.50
55135;DHT22;41031;44.750;11.308;2022-08-19T04:22:01;21.40;94.30
55135;DHT22;41031;44.750;11.308;2022-08-19T04:24:29;21.40;94.40
55135;DHT22;41031;44.750;11.308;2022-08-19T04:27:00;21.50;94.50
55135;DHT22;41031;44.750;11.308;2022-08-19T04:29:27;21.50;94.60
55135;DHT22;41031;44.750;11.308;2022-08-19T04:31:56;21.40;94.70
55135;DHT22;41031;44.750;11.308;2022-08-19T04:34:25;21.40;94.80
55135;DHT22;41031;44.750;11.308;2022-08-19T04:36:54;21.40;94.90
55135;DHT22;41031;44.750;11.308;2022-08-19T04:39:30;21.40;94.90
55135;DHT22;41031;44.750;11.308;2022-08-19T04:42:24;21.40;95.00
55135;DHT22;41031;44.750;11.308;2022-08-19T04:45:10;21.40;94.90
55135;DHT22;41031;44.750;11.308;2022-08-19T04:47:41;21.40;94.80
55135;DHT22;41031;44.750;11.308;2022-08-19T04:50:24;21.40;94.80
55135;DHT22;41031;44.750;11.308;2022-08-19T04:52:51;21.40;94.70
55135;DHT22;41031;44.750;11.308;2022-08-19T04:55:19;21.40;94.70
55135;DHT22;41031;44.750;11.308;2022-08-19T04:57:46;21.40;94.70
55135;DHT22;41031;44.750;11.308;2022-08-19T05:00:14;21.40;94.70
55135;DHT22;41031;44.750;11.308;2022-08-19T05:02:41;21.50;94.60
55135;DHT22;41031;44.750;11.308;2022-08-19T05:05:09;21.40;94.60
55135;DHT22;41031;44.750;11.308;2022-08-19T05:07:36;21.40;94.60
55135;DHT22;41031;44.750;11.308;2022-08-19T05:10:05;21.40;94.50
55135;DHT22;41031;44.750;11.308;2022-08-19T05:12:32;21.40;94.60
55135;DHT22;41031;44.750;11.308;2022-08-19T05:15:02;21.40;94.90
55135;DHT22;41031;44.750;11.308;2022-08-19T05:17:29;21.30;95.00
55135;DHT22;41031;44.750;11.308;2022-08-19T05:20:05;21.30;95.20
55135;DHT22;41031;44.750;11.308;2022-08-19T05:22:50;21.20;95.60
55135;DHT22;41031;44.750;11.308;2022-08-19T05:25:20;21.10;96.10
55135;DHT22;41031;44.750;11.308;2022-08-19T05:27:50;21.10;96.50
55135;DHT22;41031;44.750;11.308;2022-08-19T05:30:18;21.00;96.70
55135;DHT22;41031;44.750;11.308;2022-08-19T05:33:07;21.00;96.90
55135;DHT22;41031;44.750;11.308;2022-08-19T05:35:38;21.10;97.20
55135;DHT22;41031;44.750;11.308;2022-08-19T05:38:08;21.10;97.30
55135;DHT22;41031;44.750;11.308;2022-08-19T05:40:36;21.10;97.20
55135;DHT22;41031;44.750;11.308;2022-08-19T05:43:06;21.10;97.10
55135;DHT22;41031;44.750;11.308;2022-08-19T05:45:38;21.00;97.00
55135;DHT22;41031;44.750;11.308;2022-08-19T05:48:06;21.00;97.20
55135;DHT22;41031;44.750;11.308;2022-08-19T05:50:35;21.00;97.40
55135;DHT22;41031;44.750;11.308;2022-08-19T05:53:03;21.00;97.60
55135;DHT22;41031;44.750;11.308;2022-08-19T05:55:30;21.00;97.70
55135;DHT22;41031;44.750;11.308;2022-08-19T05:57:58;21.00;97.70
55135;DHT22;41031;44.750;11.308;2022-08-19T06:00:26;21.00;97.70
55135;DHT22;41031;44.750;11.308;2022-08-19T06:02:53;21.00;97.60
55135;DHT22;41031;44.750;11.308;2022-08-19T06:18:21;21.00;96.10
55135;DHT22;41031;44.750;11.308;2022-08-19T06:20:48;20.70;94.70
55135;DHT22;41031;44.750;11.308;2022-08-19T06:23:22;20.50;95.10
55135;DHT22;41031;44.750;11.308;2022-08-19T06:25:50;20.40;95.10
55135;DHT22;41031;44.750;11.308;2022-08-19T06:28:17;20.20;94.30
55135;DHT22;41031;44.750;11.308;2022-08-19T06:30:44;20.00;94.40
55135;DHT22;41031;44.750;11.308;2022-08-19T06:33:12;19.90;94.90
55135;DHT22;41031;44.750;11.308;2022-08-19T06:35:41;19.90;95.30
55135;DHT22;41031;44.750;11.308;2022-08-19T06:38:09;19.90;95.50
55135;DHT22;41031;44.750;11.308;2022-08-19T06:40:36;19.90;95.40
55135;DHT22;41031;44.750;11.308;2022-08-19T06:43:04;20.00;94.90
55135;DHT22;41031;44.750;11.308;2022-08-19T06:45:37;20.00;95.40
55135;DHT22;41031;44.750;11.308;2022-08-19T06:48:05;19.90;96.00
55135;DHT22;41031;44.750;11.308;2022-08-19T06:50:33;19.90;96.70
55135;DHT22;41031;44.750;11.308;2022-08-19T06:53:05;19.90;97.20
55135;DHT22;41031;44.750;11.308;2022-08-19T06:55:32;20.00;97.50
55135;DHT22;41031;44.750;11.308;2022-08-19T06:58:02;20.00;97.70
55135;DHT22;41031;44.750;11.308;2022-08-19T07:00:30;20.10;98.10
55135;DHT22;41031;44.750;11.308;2022-08-19T07:02:58;20.20;98.20
55135;DHT22;41031;44.750;11.308;2022-08-19T07:05:40;20.20;98.20
55135;DHT22;41031;44.750;11.308;2022-08-19T07:08:12;20.20;98.20
55135;DHT22;41031;44.750;11.308;2022-08-19T07:10:43;20.20;98.20
55135;DHT22;41031;44.750;11.308;2022-08-19T07:13:11;20.30;98.20
55135;DHT22;41031;44.750;11.308;2022-08-19T07:15:38;20.30;98.20
55135;DHT22;41031;44.750;11.308;2022-08-19T07:18:05;20.30;98.10
55135;DHT22;41031;44.750;11.308;2022-08-19T07:20:37;20.30;98.10
55135;DHT22;41031;44.750;11.308;2022-08-19T07:23:08;20.30;98.10
55135;DHT22;41031;44.750;11.308;2022-08-19T07:25:41;20.30;98.10
55135;DHT22;41031;44.750;11.308;2022-08-19T07:28:09;20.30;98.20
55135;DHT22;41031;44.750;11.308;2022-08-19T07:30:50;20.30;98.30
55135;DHT22;41031;44.750;11.308;2022-08-19T07:33:18;20.40;98.20
55135;DHT22;41031;44.750;11.308;2022-08-19T07:35:46;20.40;98.30
55135;DHT22;41031;44.750;11.308;2022-08-19T07:38:13;20.40;98.30
55135;DHT22;41031;44.750;11.308;2022-08-19T07:40:41;20.40;98.30
55135;DHT22;41031;44.750;11.308;2022-08-19T07:43:09;20.40;98.40
55135;DHT22;41031;44.750;11.308;2022-08-19T07:45:42;20.50;98.50
55135;DHT22;41031;44.750;11.308;2022-08-19T07:48:10;20.50;98.40
55135;DHT22;41031;44.750;11.308;2022-08-19T07:50:37;20.60;98.40
55135;DHT22;41031;44.750;11.308;2022-08-19T07:53:04;20.60;98.40
55135;DHT22;41031;44.750;11.308;2022-08-19T07:55:31;20.70;98.30
55135;DHT22;41031;44.750;11.308;2022-08-19T07:58:14;20.80;98.30
55135;DHT22;41031;44.750;11.308;2022-08-19T08:00:43;20.80;98.10
55135;DHT22;41031;44.750;11.308;2022-08-19T08:03:11;20.80;98.00
55135;DHT22;41031;44.750;11.308;2022-08-19T08:05:38;20.90;97.80
55135;DHT22;41031;44.750;11.308;2022-08-19T08:08:24;20.90;97.30
55135;DHT22;41031;44.750;11.308;2022-08-19T08:11:15;20.90;97.40
55135;DHT22;41031;44.750;11.308;2022-08-19T08:13:46;20.90;97.50
55135;DHT22;41031;44.750;11.308;2022-08-19T08:16:28;20.90;97.40
55135;DHT22;41031;44.750;11.308;2022-08-19T08:18:58;20.90;97.40
55135;DHT22;41031;44.750;11.308;2022-08-19T08:21:27;21.00;97.30
55135;DHT22;41031;44.750;11.308;2022-08-19T08:23:54;21.00;97.30
55135;DHT22;41031;44.750;11.308;2022-08-19T08:26:23;21.00;97.30
55135;DHT22;41031;44.750;11.308;2022-08-19T08:28:52;21.10;97.30
55135;DHT22;41031;44.750;11.308;2022-08-19T08:31:20;21.10;97.30
55135;DHT22;41031;44.750;11.308;2022-08-19T08:33:47;21.20;97.20
55135;DHT22;41031;44.750;11.308;2022-08-19T08:36:15;21.30;97.20
55135;DHT22;41031;44.750;11.308;2022-08-19T08:38:43;21.30;97.20
55135;DHT22;41031;44.750;11.308;2022-08-19T08:44:17;21.50;97.10
55135;DHT22;41031;44.750;11.308;2022-08-19T08:47:01;21.60;97.00
55135;DHT22;41031;44.750;11.308;2022-08-19T08:49:33;21.70;97.00
55135;DHT22;41031;44.750;11.308;2022-08-19T08:52:06;21.80;96.90
55135;DHT22;41031;44.750;11.308;2022-08-19T08:54:43;21.90;96.70
55135;DHT22;41031;44.750;11.308;2022-08-19T08:57:30;22.00;96.60
55135;DHT22;41031;44.750;11.308;2022-08-19T09:00:31;22.10;96.30
55135;DHT22;41031;44.750;11.308;2022-08-19T09:02:58;22.30;95.90
55135;DHT22;41031;44.750;11.308;2022-08-19T09:05:41;22.50;96.00
55135;DHT22;41031;44.750;11.308;2022-08-19T09:11:08;23.30;93.40
55135;DHT22;41031;44.750;11.308;2022-08-19T09:13:44;23.40;93.00
55135;DHT22;41031;44.750;11.308;2022-08-19T09:16:19;23.50;92.30
55135;DHT22;41031;44.750;11.308;2022-08-19T09:18:57;23.60;92.30
55135;DHT22;41031;44.750;11.308;2022-08-19T09:21:28;23.70;92.40
55135;DHT22;41031;44.750;11.308;2022-08-19T09:23:59;23.80;92.10
55135;DHT22;41031;44.750;11.308;2022-08-19T09:26:29;23.90;91.00
55135;DHT22;41031;44.750;11.308;2022-08-19T09:29:18;24.00;91.30
55135;DHT22;41031;44.750;11.308;2022-08-19T09:31:48;24.20;89.40
55135;DHT22;41031;44.750;11.308;2022-08-19T09:34:16;24.30;85.70
55135;DHT22;41031;44.750;11.308;2022-08-19T09:36:49;24.20;85.60
55135;DHT22;41031;44.750;11.308;2022-08-19T09:39:21;24.10;86.70
55135;DHT22;41031;44.750;11.308;2022-08-19T09:41:48;24.10;87.00
55135;DHT22;41031;44.750;11.308;2022-08-19T09:44:17;24.20;85.80
55135;DHT22;41031;44.750;11.308;2022-08-19T09:46:47;24.20;86.70
55135;DHT22;41031;44.750;11.308;2022-08-19T09:49:16;24.20;85.90
55135;DHT22;41031;44.750;11.308;2022-08-19T09:51:44;24.30;85.70
55135;DHT22;41031;44.750;11.308;2022-08-19T09:54:17;24.40;86.90
55135;DHT22;41031;44.750;11.308;2022-08-19T09:56:52;24.50;86.30
55135;DHT22;41031;44.750;11.308;2022-08-19T09:59:19;24.50;84.80
55135;DHT22;41031;44.750;11.308;2022-08-19T10:01:46;24.60;85.40
55135;DHT22;41031;44.750;11.308;2022-08-19T10:04:15;24.80;86.20
55135;DHT22;41031;44.750;11.308;2022-08-19T10:06:49;24.90;85.50
55135;DHT22;41031;44.750;11.308;2022-08-19T10:09:19;25.00;84.40
55135;DHT22;41031;44.750;11.308;2022-08-19T10:11:52;25.00;80.70
55135;DHT22;41031;44.750;11.308;2022-08-19T10:14:20;25.00;80.20
55135;DHT22;41031;44.750;11.308;2022-08-19T10:16:50;25.00;81.20
55135;DHT22;41031;44.750;11.308;2022-08-19T10:19:19;25.00;82.00
55135;DHT22;41031;44.750;11.308;2022-08-19T10:21:53;25.20;79.80
55135;DHT22;41031;44.750;11.308;2022-08-19T10:24:26;25.20;78.60
55135;DHT22;41031;44.750;11.308;2022-08-19T10:26:55;25.20;79.80
55135;DHT22;41031;44.750;11.308;2022-08-19T10:29:26;25.40;78.70
55135;DHT22;41031;44.750;11.308;2022-08-19T10:32:03;25.40;78.20
55135;DHT22;41031;44.750;11.308;2022-08-19T10:34:39;25.40;77.50
55135;DHT22;41031;44.750;11.308;2022-08-19T10:37:14;25.50;77.20
55135;DHT22;41031;44.750;11.308;2022-08-19T10:39:50;25.90;78.50
55135;DHT22;41031;44.750;11.308;2022-08-19T10:42:18;26.20;78.10
55135;DHT22;41031;44.750;11.308;2022-08-19T10:44:46;26.40;77.50
55135;DHT22;41031;44.750;11.308;2022-08-19T10:47:18;26.50;76.70
55135;DHT22;41031;44.750;11.308;2022-08-19T10:49:52;26.50;76.50
55135;DHT22;41031;44.750;11.308;2022-08-19T10:52:45;26.60;75.80
55135;DHT22;41031;44.750;11.308;2022-08-19T10:55:19;26.60;75.20
55135;DHT22;41031;44.750;11.308;2022-08-19T10:58:13;26.60;74.40
55135;DHT22;41031;44.750;11.308;2022-08-19T11:00:41;26.50;74.40
55135;DHT22;41031;44.750;11.308;2022-08-19T11:03:10;26.50;75.20
55135;DHT22;41031;44.750;11.308;2022-08-19T11:05:37;26.70;75.50
55135;DHT22;41031;44.750;11.308;2022-08-19T11:08:07;26.90;73.40
55135;DHT22;41031;44.750;11.308;2022-08-19T11:10:54;27.10;70.70
55135;DHT22;41031;44.750;11.308;2022-08-19T11:13:24;27.10;69.70
55135;DHT22;41031;44.750;11.308;2022-08-19T11:15:59;27.10;70.70
55135;DHT22;41031;44.750;11.308;2022-08-19T11:18:37;27.00;71.70
55135;DHT22;41031;44.750;11.308;2022-08-19T11:21:10;27.00;71.80
55135;DHT22;41031;44.750;11.308;2022-08-19T11:23:37;27.00;71.10
55135;DHT22;41031;44.750;11.308;2022-08-19T11:26:05;27.10;69.60
55135;DHT22;41031;44.750;11.308;2022-08-19T11:28:32;27.30;66.40
55135;DHT22;41031;44.750;11.308;2022-08-19T11:31:00;27.40;67.90
55135;DHT22;41031;44.750;11.308;2022-08-19T11:33:27;27.60;68.20
55135;DHT22;41031;44.750;11.308;2022-08-19T11:35:54;27.70;66.80
55135;DHT22;41031;44.750;11.308;2022-08-19T11:38:23;27.70;66.70
55135;DHT22;41031;44.750;11.308;2022-08-19T11:41:00;27.40;65.80
55135;DHT22;41031;44.750;11.308;2022-08-19T11:43:28;27.00;67.00
55135;DHT22;41031;44.750;11.308;2022-08-19T11:46:15;26.80;69.70
55135;DHT22;41031;44.750;11.308;2022-08-19T11:48:42;26.80;68.70
55135;DHT22;41031;44.750;11.308;2022-08-19T11:51:12;26.80;68.80
55135;DHT22;41031;44.750;11.308;2022-08-19T11:53:40;26.80;67.70
55135;DHT22;41031;44.750;11.308;2022-08-19T11:56:08;26.90;68.00
55135;DHT22;41031;44.750;11.308;2022-08-19T11:58:36;26.90;67.30
55135;DHT22;41031;44.750;11.308;2022-08-19T12:01:08;26.80;66.90
55135;DHT22;41031;44.750;11.308;2022-08-19T12:03:36;26.80;67.80
55135;DHT22;41031;44.750;11.308;2022-08-19T12:06:07;26.80;66.40
55135;DHT22;41031;44.750;11.308;2022-08-19T12:08:36;26.80;65.70
55135;DHT22;41031;44.750;11.308;2022-08-19T12:11:03;26.90;64.70
55135;DHT22;41031;44.750;11.308;2022-08-19T12:13:31;26.80;66.40
55135;DHT22;41031;44.750;11.308;2022-08-19T12:15:58;26.70;66.30
55135;DHT22;41031;44.750;11.308;2022-08-19T12:18:26;26.60;68.80
55135;DHT22;41031;44.750;11.308;2022-08-19T12:20:54;26.60;66.60
55135;DHT22;41031;44.750;11.308;2022-08-19T12:23:24;26.50;66.70
55135;DHT22;41031;44.750;11.308;2022-08-19T12:25:51;26.50;68.70
55135;DHT22;41031;44.750;11.308;2022-08-19T12:28:20;26.60;69.60
55135;DHT22;41031;44.750;11.308;2022-08-19T12:30:48;26.80;67.90
55135;DHT22;41031;44.750;11.308;2022-08-19T12:33:18;27.00;66.60
55135;DHT22;41031;44.750;11.308;2022-08-19T12:35:46;27.00;66.60
55135;DHT22;41031;44.750;11.308;2022-08-19T12:38:13;27.10;65.40
55135;DHT22;41031;44.750;11.308;2022-08-19T12:40:45;27.10;65.40
55135;DHT22;41031;44.750;11.308;2022-08-19T12:43:12;27.00;67.20
55135;DHT22;41031;44.750;11.308;2022-08-19T12:45:41;27.10;65.40
55135;DHT22;41031;44.750;11.308;2022-08-19T12:48:09;27.00;64.90
55135;DHT22;41031;44.750;11.308;2022-08-19T12:50:56;27.00;66.10
55135;DHT22;41031;44.750;11.308;2022-08-19T12:53:24;27.00;65.50
55135;DHT22;41031;44.750;11.308;2022-08-19T12:55:56;26.90;65.00
55135;DHT22;41031;44.750;11.308;2022-08-19T12:58:24;26.80;65.70
55135;DHT22;41031;44.750;11.308;2022-08-19T13:00:53;26.60;67.50
55135;DHT22;41031;44.750;11.308;2022-08-19T13:03:21;26.50;68.40
55135;DHT22;41031;44.750;11.308;2022-08-19T13:05:54;26.30;68.50
55135;DHT22;41031;44.750;11.308;2022-08-19T13:08:21;26.10;69.00
55135;DHT22;41031;44.750;11.308;2022-08-19T13:10:50;26.00;70.00
55135;DHT22;41031;44.750;11.308;2022-08-19T13:13:17;25.90;70.50
55135;DHT22;41031;44.750;11.308;2022-08-19T13:15:44;26.00;71.40
55135;DHT22;41031;44.750;11.308;2022-08-19T13:18:13;26.10;70.30
55135;DHT22;41031;44.750;11.308;2022-08-19T13:20:41;26.30;69.40
55135;DHT22;41031;44.750;11.308;2022-08-19T13:23:18;26.50;67.90
55135;DHT22;41031;44.750;11.308;2022-08-19T13:25:54;26.60;66.50
55135;DHT22;41031;44.750;11.308;2022-08-19T13:28:22;26.70;67.80
55135;DHT22;41031;44.750;11.308;2022-08-19T13:30:55;26.80;66.90
55135;DHT22;41031;44.750;11.308;2022-08-19T13:33:45;26.90;67.20
55135;DHT22;41031;44.750;11.308;2022-08-19T13:36:12;26.90;66.80
55135;DHT22;41031;44.750;11.308;2022-08-19T13:38:40;26.90;66.00
55135;DHT22;41031;44.750;11.308;2022-08-19T13:41:08;26.90;64.40
55135;DHT22;41031;44.750;11.308;2022-08-19T13:43:40;26.90;66.00
55135;DHT22;41031;44.750;11.308;2022-08-19T13:46:10;26.90;66.00
55135;DHT22;41031;44.750;11.308;2022-08-19T13:48:40;27.00;65.70
55135;DHT22;41031;44.750;11.308;2022-08-19T13:51:08;27.00;65.00
55135;DHT22;41031;44.750;11.308;2022-08-19T13:53:39;27.10;63.60
55135;DHT22;41031;44.750;11.308;2022-08-19T13:56:16;27.20;62.70
55135;DHT22;41031;44.750;11.308;2022-08-19T13:58:43;27.30;63.10
55135;DHT22;41031;44.750;11.308;2022-08-19T14:01:11;27.30;61.50
55135;DHT22;41031;44.750;11.308;2022-08-19T14:03:38;27.30;62.10
55135;DHT22;41031;44.750;11.308;2022-08-19T14:06:06;27.40;60.20
55135;DHT22;41031;44.750;11.308;2022-08-19T14:08:33;27.30;61.70
55135;DHT22;41031;44.750;11.308;2022-08-19T14:11:00;27.30;61.10
55135;DHT22;41031;44.750;11.308;2022-08-19T14:13:32;27.30;61.10
55135;DHT22;41031;44.750;11.308;2022-08-19T14:16:00;27.20;61.80
55135;DHT22;41031;44.750;11.308;2022-08-19T14:18:27;27.10;61.40
55135;DHT22;41031;44.750;11.308;2022-08-19T14:20:56;26.90;62.00
55135;DHT22;41031;44.750;11.308;2022-08-19T14:23:24;26.80;62.70
55135;DHT22;41031;44.750;11.308;2022-08-19T14:25:52;26.70;63.90
55135;DHT22;41031;44.750;11.308;2022-08-19T14:28:19;26.70;62.60
55135;DHT22;41031;44.750;11.308;2022-08-19T14:30:52;26.60;61.80
55135;DHT22;41031;44.750;11.308;2022-08-19T14:33:22;26.60;61.40
55135;DHT22;41031;44.750;11.308;2022-08-19T14:35:56;26.60;62.70
55135;DHT22;41031;44.750;11.308;2022-08-19T14:38:26;26.60;61.80
55135;DHT22;41031;44.750;11.308;2022-08-19T14:43:38;26.60;63.80
55135;DHT22;41031;44.750;11.308;2022-08-19T14:46:05;26.70;62.90
55135;DHT22;41031;44.750;11.308;2022-08-19T14:48:36;26.80;62.40
55135;DHT22;41031;44.750;11.308;2022-08-19T14:51:08;26.90;62.20
55135;DHT22;41031;44.750;11.308;2022-08-19T14:53:35;26.90;62.60
55135;DHT22;41031;44.750;11.308;2022-08-19T14:56:11;27.00;62.70
55135;DHT22;41031;44.750;11.308;2022-08-19T14:58:41;27.00;62.40
55135;DHT22;41031;44.750;11.308;2022-08-19T15:01:09;27.10;63.20
55135;DHT22;41031;44.750;11.308;2022-08-19T15:03:37;27.20;62.50
55135;DHT22;41031;44.750;11.308;2022-08-19T15:06:08;27.20;62.50
55135;DHT22;41031;44.750;11.308;2022-08-19T15:08:40;27.10;62.30
55135;DHT22;41031;44.750;11.308;2022-08-19T15:11:11;26.90;63.10
55135;DHT22;41031;44.750;11.308;2022-08-19T15:13:38;26.90;63.70
55135;DHT22;41031;44.750;11.308;2022-08-19T15:16:06;26.90;65.00
55135;DHT22;41031;44.750;11.308;2022-08-19T15:18:45;26.90;64.50
55135;DHT22;41031;44.750;11.308;2022-08-19T15:21:14;26.80;64.40
55135;DHT22;41031;44.750;11.308;2022-08-19T15:23:54;26.70;64.80
55135;DHT22;41031;44.750;11.308;2022-08-19T15:26:21;26.60;64.60
55135;DHT22;41031;44.750;11.308;2022-08-19T15:28:48;26.50;65.00
55135;DHT22;41031;44.750;11.308;2022-08-19T15:31:20;26.40;65.20
55135;DHT22;41031;44.750;11.308;2022-08-19T15:33:55;26.30;66.60
55135;DHT22;41031;44.750;11.308;2022-08-19T15:36:24;26.20;65.90
55135;DHT22;41031;44.750;11.308;2022-08-19T15:38:53;26.20;66.30
55135;DHT22;41031;44.750;11.308;2022-08-19T15:41:24;26.10;66.40
55135;DHT22;41031;44.750;11.308;2022-08-19T15:44:00;26.00;66.60
55135;DHT22;41031;44.750;11.308;2022-08-19T15:46:30;26.00;66.60
55135;DHT22;41031;44.750;11.308;2022-08-19T15:48:58;25.80;67.50
55135;DHT22;41031;44.750;11.308;2022-08-19T15:51:29;25.80;68.00
55135;DHT22;41031;44.750;11.308;2022-08-19T15:53:58;25.70;68.50
55135;DHT22;41031;44.750;11.308;2022-08-19T15:56:26;25.60;68.10
55135;DHT22;41031;44.750;11.308;2022-08-19T15:59:23;25.50;68.30
55135;DHT22;41031;44.750;11.308;2022-08-19T16:02:14;25.40;68.60